createdAt,value
2023-01-09T00:01:52.122Z,8.21
2023-01-09T00:06:54.341Z,8.39
2023-01-09T00:11:56.338Z,8.08
2023-01-09T00:16:58.393Z,8.17
2023-01-09T00:22:00.652Z,8.21
2023-01-09T00:27:02.682Z,8.21
2023-01-09T00:32:04.683Z,8.29
2023-01-09T00:37:11.857Z,8.17
2023-01-09T00:42:21.795Z,8.45
2023-01-09T00:47:38.425Z,8.38
2023-01-09T00:52:41.040Z,8.22
2023-01-09T00:57:43.245Z,8.22
2023-01-09T01:02:45.481Z,8.22
2023-01-09T01:07:47.494Z,8.47
2023-01-09T01:12:50.474Z,8.52
2023-01-09T01:17:52.394Z,8.77
2023-01-09T01:22:54.245Z,8.60
2023-01-09T01:27:56.134Z,8.53
2023-01-09T01:32:58.099Z,8.68
2023-01-09T01:38:00.357Z,8.76
2023-01-09T01:43:02.515Z,8.17
2023-01-09T01:48:09.533Z,8.51
2023-01-09T01:53:28.967Z,8.33
2023-01-09T01:58:31.698Z,8.19
2023-01-09T02:03:35.165Z,8.24
2023-01-09T02:08:37.075Z,8.46
2023-01-09T02:13:40.428Z,8.53
2023-01-09T02:18:58.182Z,8.59
2023-01-09T02:24:23.279Z,8.75
2023-01-09T02:30:02.607Z,8.88
2023-01-09T02:35:27.796Z,8.81
2023-01-09T02:40:36.655Z,8.73
2023-01-09T02:45:38.832Z,8.74
2023-01-09T02:51:12.615Z,8.72
2023-01-09T02:56:40.010Z,8.72
2023-01-09T03:01:48.164Z,8.78
2023-01-09T03:07:09.766Z,8.82
2023-01-09T03:12:20.419Z,8.96
2023-01-09T03:17:36.368Z,9.04
2023-01-09T03:22:40.551Z,8.87
2023-01-09T03:27:42.604Z,9.07
2023-01-09T03:32:44.479Z,8.82
2023-01-09T03:37:46.406Z,8.75
2023-01-09T03:42:48.530Z,8.83
2023-01-09T03:47:52.813Z,8.86
2023-01-09T03:52:55.102Z,8.74
2023-01-09T03:57:57.149Z,8.75
2023-01-09T04:02:58.975Z,8.66
2023-01-09T04:08:01.298Z,8.92
2023-01-09T04:13:03.390Z,9.17
2023-01-09T04:18:05.547Z,9.15
2023-01-09T04:23:07.580Z,9.12
2023-01-09T04:28:09.684Z,8.77
2023-01-09T04:33:11.570Z,8.98
2023-01-09T04:38:13.798Z,9.11
2023-01-09T04:43:15.769Z,8.76
2023-01-09T04:48:17.734Z,8.96
2023-01-09T04:53:19.832Z,8.88
2023-01-09T04:58:21.845Z,8.92
2023-01-09T05:03:23.748Z,8.88
2023-01-09T05:08:25.607Z,8.87
2023-01-09T05:13:28.139Z,9.21
2023-01-09T05:18:30.110Z,9.14
2023-01-09T05:23:32.047Z,9.05
2023-01-09T05:28:33.965Z,8.92
2023-01-09T05:33:35.824Z,9.06
2023-01-09T05:38:38.463Z,8.81
2023-01-09T05:43:40.599Z,8.72
2023-01-09T05:48:42.468Z,8.70
2023-01-09T05:53:44.307Z,8.46
2023-01-09T05:58:46.427Z,8.51
2023-01-09T06:03:48.283Z,8.35
2023-01-09T06:08:50.173Z,8.28
2023-01-09T06:13:52.088Z,8.27
2023-01-09T06:18:54.314Z,8.41
2023-01-09T06:23:56.764Z,8.39
2023-01-09T06:29:00.804Z,8.49
2023-01-09T06:34:02.776Z,8.57
2023-01-09T06:39:04.679Z,8.68
2023-01-09T06:44:06.579Z,8.29
2023-01-09T06:49:10.047Z,8.34
2023-01-09T06:54:12.018Z,8.01
2023-01-09T06:59:14.383Z,7.98
2023-01-09T07:04:17.723Z,8.13
2023-01-09T07:09:19.767Z,7.98
2023-01-09T07:14:21.661Z,8.01
2023-01-09T07:19:23.741Z,7.81
2023-01-09T07:24:25.592Z,8.19
2023-01-09T07:29:27.471Z,8.11
2023-01-09T07:34:29.744Z,8.44
2023-01-09T07:39:31.624Z,8.36
2023-01-09T07:44:33.775Z,8.28
2023-01-09T07:49:35.644Z,8.16
2023-01-09T07:54:37.509Z,8.19
2023-01-09T07:59:39.772Z,8.37
2023-01-09T08:04:41.666Z,8.56
2023-01-09T08:09:43.559Z,8.59
2023-01-09T08:14:45.508Z,8.55
2023-01-09T08:19:47.360Z,8.91
2023-01-09T08:24:49.530Z,8.85
2023-01-09T08:29:51.387Z,8.63
2023-01-09T08:34:53.864Z,9.02
2023-01-09T08:39:56.484Z,8.98
2023-01-09T08:45:17.122Z,8.86
2023-01-09T08:50:19.061Z,8.73
2023-01-09T08:55:20.942Z,8.81
2023-01-09T09:00:24.409Z,9.03
2023-01-09T09:05:28.286Z,8.98
2023-01-09T09:10:30.793Z,9.67
2023-01-09T09:15:34.293Z,9.12
2023-01-09T09:20:39.312Z,9.29
2023-01-09T09:25:41.284Z,9.97
2023-01-09T09:30:43.208Z,9.99
2023-01-09T09:35:45.373Z,10.03
2023-01-09T09:41:06.182Z,10.14
2023-01-09T09:46:17.343Z,10.30
2023-01-09T09:51:52.739Z,10.54
2023-01-09T09:56:58.107Z,10.13
2023-01-09T10:02:09.535Z,10.33
2023-01-09T10:07:23.739Z,10.80
2023-01-09T10:12:45.502Z,10.62
2023-01-09T10:17:59.798Z,10.73
2023-01-09T10:23:13.956Z,10.36
2023-01-09T10:28:37.614Z,10.27
2023-01-09T10:34:03.771Z,10.07
2023-01-09T10:39:10.462Z,10.29
2023-01-09T10:44:33.203Z,10.62
2023-01-09T10:49:36.959Z,10.71
2023-01-09T10:54:46.073Z,10.96
2023-01-09T10:59:48.060Z,10.66
2023-01-09T11:04:50.585Z,10.84
2023-01-09T11:09:59.981Z,10.73
2023-01-09T11:15:19.286Z,10.58
2023-01-09T11:20:24.045Z,10.85
2023-01-09T11:25:27.956Z,10.71
2023-01-09T11:30:31.499Z,10.88
2023-01-09T11:35:35.156Z,11.09
2023-01-09T11:40:44.285Z,11.14
2023-01-09T11:46:00.728Z,10.94
2023-01-09T11:51:21.366Z,11.03
2023-01-09T11:56:23.978Z,11.17
2023-01-09T12:01:44.947Z,11.00
2023-01-09T12:06:54.290Z,11.29
2023-01-09T12:12:18.477Z,10.98
2023-01-09T12:17:56.034Z,11.11
2023-01-09T12:23:10.120Z,11.05
2023-01-09T12:28:33.236Z,11.27
2023-01-09T12:33:58.411Z,11.31
2023-01-09T12:39:09.090Z,11.34
2023-01-09T12:44:35.661Z,11.38
2023-01-09T12:49:48.449Z,11.51
2023-01-09T12:55:05.943Z,11.39
2023-01-09T13:00:30.725Z,11.51
2023-01-09T13:05:40.336Z,11.38
2023-01-09T13:10:47.458Z,11.53
2023-01-09T13:15:54.785Z,11.69
2023-01-09T13:20:57.327Z,11.42
2023-01-09T13:26:08.607Z,11.60
2023-01-09T13:31:38.643Z,11.54
2023-01-09T13:36:56.101Z,11.41
2023-01-09T13:42:19.904Z,11.59
2023-01-09T13:47:21.923Z,11.45
2023-01-09T13:52:40.342Z,11.09
2023-01-09T13:58:13.723Z,11.40
2023-01-09T14:03:32.991Z,11.27
2023-01-09T14:08:35.351Z,11.33
2023-01-09T14:13:37.397Z,11.25
2023-01-09T14:19:00.452Z,11.04
2023-01-09T14:24:07.328Z,10.99
2023-01-09T14:29:28.321Z,11.42
2023-01-09T14:34:37.372Z,11.24
2023-01-09T14:39:42.931Z,11.33
2023-01-09T14:44:55.824Z,11.39
2023-01-09T14:50:15.773Z,11.10
2023-01-09T14:55:26.726Z,11.22
2023-01-09T15:00:28.872Z,11.41
2023-01-09T15:05:31.712Z,11.46
2023-01-09T15:10:37.509Z,11.55
2023-01-09T15:15:45.328Z,11.41
2023-01-09T15:20:53.422Z,11.71
2023-01-09T15:25:56.720Z,11.51
2023-01-09T15:31:11.545Z,11.82
2023-01-09T15:36:18.374Z,11.85
2023-01-09T15:41:44.788Z,11.84
2023-01-09T15:46:50.025Z,11.70
2023-01-09T15:51:53.411Z,11.77
2023-01-09T15:57:09.943Z,11.70
2023-01-09T16:02:32.739Z,11.99
2023-01-09T16:07:34.888Z,11.75
2023-01-09T16:12:36.794Z,11.79
2023-01-09T16:17:39.769Z,11.98
2023-01-09T16:22:56.745Z,11.92
2023-01-09T16:28:21.250Z,12.12
2023-01-09T16:33:26.951Z,12.11
2023-01-09T16:38:29.058Z,11.85
2023-01-09T16:43:31.167Z,12.12
2023-01-09T16:48:33.954Z,12.10
2023-01-09T16:53:35.879Z,12.05
2023-01-09T16:58:37.927Z,12.33
2023-01-09T17:03:43.609Z,12.21
2023-01-09T17:08:46.924Z,12.22
2023-01-09T17:13:49.212Z,12.26
2023-01-09T17:18:51.465Z,12.12
2023-01-09T17:24:13.700Z,12.36
2023-01-09T17:29:15.654Z,12.44
2023-01-09T17:34:17.643Z,12.45
2023-01-09T17:39:19.656Z,12.37
2023-01-09T17:44:21.562Z,12.50
2023-01-09T17:49:23.855Z,12.40
2023-01-09T17:54:25.741Z,12.30
2023-01-09T17:59:29.296Z,11.92
2023-01-09T18:04:31.129Z,12.46
2023-01-09T18:09:33.067Z,12.44
2023-01-09T18:14:35.507Z,12.61
2023-01-09T18:19:37.642Z,12.53
2023-01-09T18:24:39.675Z,12.51
2023-01-09T18:29:41.548Z,12.38
2023-01-09T18:34:43.791Z,12.16
2023-01-09T18:39:45.833Z,12.46
2023-01-09T18:44:47.721Z,12.55
2023-01-09T18:49:49.920Z,12.44
2023-01-09T18:54:51.820Z,12.21
2023-01-09T18:59:53.762Z,12.38
2023-01-09T19:04:55.691Z,12.14
2023-01-09T19:09:57.603Z,12.07
2023-01-09T19:14:59.691Z,12.30
2023-01-09T19:20:01.842Z,12.32
2023-01-09T19:25:05.149Z,12.19
2023-01-09T19:30:08.132Z,12.50
2023-01-09T19:35:10.186Z,12.31
2023-01-09T19:40:12.650Z,12.41
2023-01-09T19:45:14.741Z,12.38
2023-01-09T19:50:18.422Z,12.06
2023-01-09T19:55:20.251Z,12.12
2023-01-09T20:00:25.104Z,12.18
2023-01-09T20:05:29.928Z,12.17
2023-01-09T20:10:31.943Z,12.25
2023-01-09T20:15:37.174Z,12.21
2023-01-09T20:20:39.211Z,12.46
2023-01-09T20:25:41.282Z,12.56
2023-01-09T20:30:49.213Z,12.55
2023-01-09T20:35:51.256Z,12.62
2023-01-09T20:40:53.547Z,12.62
2023-01-09T20:45:55.640Z,12.57
2023-01-09T20:51:04.048Z,12.59
2023-01-09T20:56:07.634Z,12.52
2023-01-09T21:01:12.593Z,12.53
2023-01-09T21:06:17.150Z,12.63
2023-01-09T21:11:20.644Z,12.64
2023-01-09T21:16:24.859Z,12.58
2023-01-09T21:21:27.681Z,12.71
2023-01-09T21:26:30.903Z,12.74
2023-01-09T21:31:35.836Z,12.75
2023-01-09T21:36:37.826Z,12.80
2023-01-09T21:42:18.384Z,12.60
2023-01-09T21:47:20.268Z,12.62
2023-01-09T21:52:22.338Z,12.59
2023-01-09T21:57:24.276Z,12.80
2023-01-09T22:02:26.212Z,12.67
2023-01-09T22:07:28.094Z,12.84
2023-01-09T22:12:30.028Z,12.75
2023-01-09T22:17:31.939Z,12.78
2023-01-09T22:22:33.962Z,12.38
2023-01-09T22:27:36.596Z,12.62
2023-01-09T22:32:38.753Z,12.45
2023-01-09T22:37:40.649Z,12.16
2023-01-09T22:42:42.582Z,11.92
2023-01-09T22:47:44.523Z,12.37
2023-01-09T22:52:48.439Z,11.98
2023-01-09T22:57:50.606Z,12.07
2023-01-09T23:02:52.628Z,12.12
2023-01-09T23:07:54.912Z,11.68
2023-01-09T23:12:56.875Z,11.32
2023-01-09T23:17:59.123Z,11.82
2023-01-09T23:23:01.131Z,12.34
2023-01-09T23:28:03.589Z,12.46
2023-01-09T23:33:05.447Z,12.40
2023-01-09T23:38:07.390Z,12.46
2023-01-09T23:43:11.129Z,12.58
2023-01-09T23:48:14.278Z,12.77
2023-01-09T23:53:16.756Z,12.59
2023-01-09T23:58:18.662Z,12.79
